This is the latest recevied weather packets stored in our database for station/object KD8ZLZ-13. If no packets are shown the sender has not sent any weather packets the latest 10 day(s).
| Time | Temp. | Humidity | Pressure | Rain* | Wind** | Luminosity | Snow |
|---|---|---|---|---|---|---|---|
| 1777851793 | 13.33° C | 54% | 1010.5 hPa | 0 mm | - | 22 W/m² | - |
| 1777851193 | 13.89° C | 54% | 1010.5 hPa | 0 mm | - | 23 W/m² | - |
| 1777850593 | 14.44° C | 52% | 1010.5 hPa | 0 mm | - | 36 W/m² | - |
| 1777849993 | 15° C | 48% | 1010.5 hPa | 0 mm | - | 74 W/m² | - |
| 1777849393 | 15.56° C | 43% | 1010.9 hPa | 0 mm | - | 97 W/m² | - |
| 1777848793 | 16.11° C | 42% | 1010.9 hPa | 0 mm | - | 107 W/m² | - |
| 1777848193 | 16.11° C | 42% | 1010.5 hPa | 0 mm | - | 101 W/m² | - |
| 1777847593 | 16.11° C | 41% | 1010.5 hPa | 0 mm | - | 148 W/m² | - |
| 1777846993 | 16.11° C | 40% | 1010.9 hPa | 0 mm | - | 103 W/m² | - |
| 1777846393 | 17.78° C | 38% | 1010.5 hPa | 0 mm | - | 357 W/m² | - |
| 1777845793 | 17.78° C | 38% | 1010.9 hPa | 0 mm | - | 347 W/m² | - |
| 1777845193 | 17.78° C | 38% | 1010.5 hPa | 0 mm | - | 366 W/m² | - |
| 1777844593 | 18.33° C | 37% | 1010.9 hPa | 0 mm | - | 494 W/m² | - |
| 1777843993 | 18.33° C | 36% | 1010.9 hPa | 0 mm | - | 520 W/m² | - |
| 1777843393 | 17.78° C | 36% | 1010.9 hPa | 0 mm | - | 375 W/m² | - |
| 1777842793 | 17.78° C | 37% | 1010.9 hPa | 0 mm | - | 550 W/m² | - |
| 1777842193 | 17.78° C | 38% | 1011.2 hPa | 0 mm | - | 501 W/m² | - |
| 1777841593 | 17.22° C | 38% | 1011.2 hPa | 0 mm | - | 214 W/m² | - |
| 1777840993 | 17.22° C | 38% | 1011.2 hPa | 0 mm | - | 411 W/m² | - |
| 1777840393 | 17.22° C | 37% | 1011.2 hPa | 0 mm | - | 309 W/m² | - |
| 1777839793 | 17.22° C | 37% | 1011.2 hPa | 0 mm | - | 322 W/m² | - |
| 1777839193 | 18.33° C | 37% | 1011.5 hPa | 0 mm | - | 623 W/m² | - |
| 1777838593 | 17.22° C | 36% | 1011.5 hPa | 0 mm | - | 432 W/m² | - |
| 1777837993 | 16.67° C | 37% | 1011.5 hPa | 0 mm | - | 290 W/m² | - |
| 1777837393 | 17.78° C | 36% | 1011.5 hPa | 0 mm | - | 681 W/m² | - |
* Rain latest hour (hover to see other rain measurements)
** Current wind speed in m/s (hover to see current wind gust speed)